Terminal Aerodrome Forecast
Issued by NWS

Home | Current Version | Previous Version | Text Only | Print | Product List | Glossary On
Versions: 1 2 3 4 5 6 7 8 9 10 11 12 13 14 15 16 17 18 19 20
000
FTUS41 KPHI 030520
TAFPNE
TAF
KPNE 030520Z 0306/0406 VRB03KT P6SM BKN070
     FM030900 VRB03KT 6SM BR SCT060 BKN200
     FM031200 07004KT P6SM BKN060
     FM031800 16006KT P6SM BKN050=

USA.gov is the U.S. government's official web portal to all federal, state and local government web resources and services.